Becks, United Kingdom
Current Conditions -  °F | °C
As of 3:50 AM on Saturday 01 Nov 2014 (Local Time) from EGNM Reporting Station
Scattered Clouds Scattered Clouds  
Wind Chill: 55°   Ceiling: Unl
Heat Index: 55°   Visibility: 6mi
Dew Point: 54°   Wind: 7mph
Humidity: 94%   Direction: 220°SW
Pressure: 29.8"   Gusts: NA
Location:  53.91°N, 1.94°W
Report Text: EGNM 010350Z 22006KT 190V260 9999 FEW012 SCT024 13/12 Q1009
Loading
Personal Weather Stations






























Interactive Weather Map
Tropical Storm Tracking
New forecast layout! Learn more

10-Day Weather Forecast

Advertisements
Track Severe Weather on mobile